Time;durP1;ratioP1;P1;durP2;ratioP2;P2;SDS_P1;SDS_P2;PMS_P1;PMS_P2;Temp;Humidity;BMP_temperature;BMP_pressure;BME280_temperature;BME280_humidity;BME280_pressure;Samples;Min_cycle;Max_cycle;Signal;HPM_P1;HPM_P2
2021/05/23 00:01:04;;;;;;;0.20;0.20;;;12.40;99.90;;;;;;4448043;32;20073;-78
2021/05/23 00:03:29;;;;;;;0.30;0.30;;;12.50;99.90;;;;;;4448695;32;20061;-78
2021/05/23 00:05:56;;;;;;;0.30;0.30;;;12.40;99.90;;;;;;4448257;32;20506;-77
2021/05/23 00:08:23;;;;;;;0.45;0.40;;;12.40;99.90;;;;;;4447656;32;20065;-77
2021/05/23 00:10:57;;;;;;;0.20;0.20;;;12.40;99.90;;;;;;4447247;32;20064;-77
2021/05/23 00:13:26;;;;;;;0.20;0.20;;;12.40;99.90;;;;;;4435313;32;20116;-78
2021/05/23 00:15:57;;;;;;;0.40;0.40;;;12.40;99.90;;;;;;4431796;32;20065;-77
2021/05/23 00:18:24;;;;;;;1.55;0.50;;;12.30;99.90;;;;;;4430872;32;20108;-76
2021/05/23 00:20:50;;;;;;;0.30;0.30;;;12.30;99.90;;;;;;4433097;32;20089;-76
2021/05/23 00:23:16;;;;;;;0.20;0.20;;;12.20;99.90;;;;;;4447423;32;20518;-76
2021/05/23 00:25:42;;;;;;;0.40;0.40;;;12.20;99.90;;;;;;4447862;32;20073;-79
2021/05/23 00:28:09;;;;;;;0.50;0.50;;;12.10;99.90;;;;;;4446411;32;20077;-77
2021/05/23 00:30:36;;;;;;;0.28;0.28;;;12.20;99.90;;;;;;4447067;32;20402;-77
2021/05/23 00:33:03;;;;;;;0.30;0.30;;;12.20;99.90;;;;;;4446754;32;20065;-77
2021/05/23 00:35:29;;;;;;;0.88;0.70;;;12.20;99.90;;;;;;4447316;32;20423;-77
2021/05/23 00:37:55;;;;;;;0.32;0.32;;;12.10;99.90;;;;;;4446140;32;20104;-77
2021/05/23 00:40:21;;;;;;;0.30;0.30;;;12.10;99.90;;;;;;4446893;32;20073;-76
2021/05/23 00:42:47;;;;;;;0.30;0.30;;;12.00;99.90;;;;;;4445989;32;20057;-77
2021/05/23 00:45:15;;;;;;;0.35;0.35;;;12.10;99.90;;;;;;4445163;32;20069;-77
2021/05/23 00:47:42;;;;;;;0.22;0.22;;;12.10;99.90;;;;;;4445785;32;20401;-77
2021/05/23 00:50:10;;;;;;;1.83;0.37;;;12.10;99.90;;;;;;4445997;32;20068;-77
2021/05/23 00:52:36;;;;;;;0.40;0.40;;;12.10;99.90;;;;;;4447119;32;20187;-79
2021/05/23 00:55:03;;;;;;;0.35;0.35;;;12.10;99.90;;;;;;4448366;32;20557;-79
2021/05/23 00:57:29;;;;;;;0.30;0.30;;;12.20;99.90;;;;;;4447147;32;20089;-78
2021/05/23 00:59:55;;;;;;;0.20;0.20;;;12.10;99.90;;;;;;4446945;32;20506;-77
2021/05/23 01:02:39;;;;;;;0.28;0.28;;;12.10;99.90;;;;;;4446183;32;20064;-77
2021/05/23 01:05:06;;;;;;;0.30;0.30;;;12.10;99.90;;;;;;4447337;32;20068;-78
2021/05/23 01:07:31;;;;;;;0.25;0.25;;;12.10;99.90;;;;;;4446469;32;20081;-79
2021/05/23 01:10:05;;;;;;;0.32;0.25;;;12.10;99.90;;;;;;4446585;32;20077;-78
2021/05/23 01:12:53;;;;;;;0.28;0.28;;;12.20;99.90;;;;;;4438246;32;20108;-77
2021/05/23 01:15:44;;;;;;;0.20;0.20;;;12.10;99.90;;;;;;4426134;32;20077;-79
2021/05/23 01:18:15;;;;;;;0.30;0.30;;;12.10;99.90;;;;;;4430466;32;20541;-77
2021/05/23 01:20:51;;;;;;;0.45;0.45;;;12.10;99.90;;;;;;4430363;32;20073;-77
2021/05/23 01:23:23;;;;;;;0.30;0.30;;;12.20;99.90;;;;;;4431449;32;20077;-78
2021/05/23 01:25:51;;;;;;;0.30;0.30;;;12.10;99.90;;;;;;4434140;32;20120;-76
2021/05/23 01:28:18;;;;;;;0.28;0.28;;;12.10;99.90;;;;;;4431983;32;20082;-78
2021/05/23 01:30:46;;;;;;;0.20;0.20;;;12.10;99.90;;;;;;4430981;32;20384;-77
2021/05/23 01:33:14;;;;;;;0.40;0.40;;;12.00;99.90;;;;;;4430476;32;20073;-77
2021/05/23 01:35:42;;;;;;;0.70;0.40;;;11.90;99.90;;;;;;4430990;32;20080;-76
2021/05/23 01:38:12;;;;;;;0.30;0.30;;;12.00;99.90;;;;;;4430757;32;20116;-76
2021/05/23 01:40:39;;;;;;;0.37;0.37;;;11.70;99.90;;;;;;4431793;32;20073;-76
2021/05/23 01:43:06;;;;;;;3.37;0.75;;;11.50;99.90;;;;;;4429938;32;20248;-76
2021/05/23 01:45:33;;;;;;;0.28;0.28;;;11.60;99.90;;;;;;4431983;32;20132;-76
2021/05/23 01:47:59;;;;;;;0.30;0.30;;;11.60;99.90;;;;;;4431922;32;20057;-81
2021/05/23 01:50:26;;;;;;;0.40;0.40;;;11.50;99.90;;;;;;4431373;32;20502;-77
2021/05/23 01:52:55;;;;;;;0.20;0.20;;;11.60;99.90;;;;;;4430208;32;20077;-76
2021/05/23 01:55:21;;;;;;;0.40;0.40;;;11.60;99.90;;;;;;4431332;32;20090;-79
2021/05/23 01:57:47;;;;;;;0.30;0.30;;;11.50;99.90;;;;;;4430021;32;20065;-80
2021/05/23 02:00:15;;;;;;;0.30;0.30;;;11.50;99.90;;;;;;4430793;32;20164;-76
2021/05/23 02:02:41;;;;;;;3.17;1.35;;;11.40;99.90;;;;;;4430873;32;20061;-76
2021/05/23 02:05:08;;;;;;;0.70;0.70;;;11.20;99.90;;;;;;4428919;32;20054;-76
2021/05/23 02:07:34;;;;;;;0.37;0.37;;;11.20;99.90;;;;;;4430267;32;20061;-77
2021/05/23 02:10:00;;;;;;;0.32;0.32;;;11.20;99.90;;;;;;4430633;32;20384;-79
2021/05/23 02:12:26;;;;;;;0.30;0.30;;;11.20;99.90;;;;;;4437229;32;20130;-79
2021/05/23 02:14:51;;;;;;;0.30;0.30;;;11.20;99.90;;;;;;4444866;32;20057;-76
2021/05/23 02:17:17;;;;;;;0.22;0.22;;;11.20;99.90;;;;;;4446121;32;20093;-76
2021/05/23 02:19:50;;;;;;;0.30;0.30;;;11.20;99.90;;;;;;4444698;32;20085;-76
2021/05/23 02:22:16;;;;;;;0.30;0.30;;;11.10;99.90;;;;;;4445213;32;20061;-76
2021/05/23 02:24:44;;;;;;;0.45;0.30;;;11.00;99.90;;;;;;4446184;32;20077;-76
2021/05/23 02:27:11;;;;;;;0.40;0.40;;;11.10;99.90;;;;;;4444590;32;20088;-76
2021/05/23 02:29:36;;;;;;;0.43;0.43;;;11.10;99.90;;;;;;4446506;32;20053;-76
2021/05/23 02:32:06;;;;;;;0.30;0.30;;;11.10;99.90;;;;;;4445977;32;20135;-78
2021/05/23 02:34:32;;;;;;;0.47;0.47;;;11.00;99.90;;;;;;4445370;32;20057;-75
2021/05/23 02:36:59;;;;;;;0.25;0.25;;;11.00;99.90;;;;;;4446697;32;20088;-78
2021/05/23 02:39:24;;;;;;;0.43;0.43;;;11.00;99.90;;;;;;4445232;32;20123;-76
2021/05/23 02:41:50;;;;;;;2.75;0.40;;;11.00;99.90;;;;;;4445614;32;20073;-78
2021/05/23 02:44:15;;;;;;;0.30;0.30;;;10.90;99.90;;;;;;4444126;32;20089;-78
2021/05/23 02:46:42;;;;;;;0.30;0.30;;;10.80;99.90;;;;;;4444386;32;20126;-78
2021/05/23 02:49:12;;;;;;;0.20;0.20;;;10.70;99.90;;;;;;4445586;32;20454;-78
2021/05/23 02:51:38;;;;;;;2.17;0.75;;;10.70;99.90;;;;;;4445130;32;20574;-78
2021/05/23 02:54:04;;;;;;;0.20;0.20;;;10.70;99.90;;;;;;4444895;32;20078;-78
2021/05/23 02:56:29;;;;;;;0.20;0.20;;;10.80;99.90;;;;;;4444929;32;20194;-75
2021/05/23 02:58:55;;;;;;;0.20;0.20;;;10.70;99.90;;;;;;4445600;32;20505;-75
2021/05/23 03:01:20;;;;;;;0.40;0.40;;;10.70;99.90;;;;;;4447063;32;20065;-77
2021/05/23 03:03:45;;;;;;;0.40;0.40;;;10.70;99.90;;;;;;4448490;32;20069;-77
2021/05/23 03:06:11;;;;;;;0.85;0.70;;;10.70;99.90;;;;;;4448590;32;20082;-78
2021/05/23 03:08:37;;;;;;;0.30;0.30;;;10.70;99.90;;;;;;4447770;32;20073;-79
2021/05/23 03:11:02;;;;;;;0.30;0.30;;;10.60;99.90;;;;;;4447957;32;20081;-78
2021/05/23 03:13:28;;;;;;;9.00;0.47;;;10.50;99.90;;;;;;4434373;32;20061;-77
2021/05/23 03:15:53;;;;;;;0.30;0.30;;;10.60;99.90;;;;;;4431999;32;20074;-77
2021/05/23 03:18:19;;;;;;;17.27;0.82;;;10.50;99.90;;;;;;4433057;32;20116;-78
2021/05/23 03:20:44;;;;;;;0.40;0.40;;;10.40;99.90;;;;;;4432334;32;20069;-79
2021/05/23 03:23:10;;;;;;;0.20;0.20;;;10.40;99.90;;;;;;4432474;32;20120;-78
2021/05/23 03:25:36;;;;;;;0.30;0.30;;;10.40;99.90;;;;;;4433761;32;20082;-78
2021/05/23 03:28:03;;;;;;;0.50;0.50;;;10.50;99.90;;;;;;4432121;32;20112;-78
2021/05/23 03:30:32;;;;;;;0.30;0.30;;;10.50;99.90;;;;;;4431550;32;20069;-78
2021/05/23 03:32:57;;;;;;;0.30;0.30;;;10.50;99.90;;;;;;4432082;32;20066;-78
2021/05/23 03:35:23;;;;;;;0.30;0.30;;;10.50;99.90;;;;;;4430955;32;20388;-77
2021/05/23 03:37:50;;;;;;;0.40;0.40;;;10.50;99.90;;;;;;4431282;32;20073;-77
2021/05/23 03:40:17;;;;;;;0.40;0.40;;;10.50;99.90;;;;;;4432451;32;20526;-77
2021/05/23 03:42:44;;;;;;;0.35;0.35;;;10.60;99.90;;;;;;4434730;32;20061;-77
2021/05/23 03:45:11;;;;;;;0.30;0.30;;;10.60;99.90;;;;;;4446724;32;20065;-77
2021/05/23 03:47:36;;;;;;;0.50;0.50;;;10.50;99.90;;;;;;4446283;32;20387;-77
2021/05/23 03:50:05;;;;;;;0.30;0.30;;;10.60;99.90;;;;;;4446560;32;20397;-77
2021/05/23 03:52:31;;;;;;;0.30;0.30;;;10.60;99.90;;;;;;4446983;32;20061;-77
2021/05/23 03:54:56;;;;;;;0.35;0.35;;;10.70;99.90;;;;;;4447020;32;20092;-80
2021/05/23 03:57:22;;;;;;;0.22;0.22;;;10.70;99.90;;;;;;4446394;32;20367;-77
2021/05/23 03:59:48;;;;;;;0.20;0.20;;;10.40;99.90;;;;;;4447665;32;20061;-77
2021/05/23 04:02:13;;;;;;;0.30;0.30;;;10.40;99.90;;;;;;4448349;32;20034;-78
2021/05/23 04:04:48;;;;;;;0.30;0.30;;;10.30;99.90;;;;;;4447277;32;20244;-78
2021/05/23 04:07:19;;;;;;;0.30;0.30;;;10.30;99.90;;;;;;4447252;32;20434;-78
2021/05/23 04:09:44;;;;;;;;;;;10.30;99.90;;;;;;4447573;32;20128;-78
2021/05/23 04:12:16;;;;;;;0.32;0.32;;;10.40;99.90;;;;;;4441521;32;20011;-78
2021/05/23 04:14:44;;;;;;;0.30;0.30;;;10.50;99.90;;;;;;4432568;32;20062;-77
2021/05/23 04:17:10;;;;;;;0.50;0.50;;;10.50;99.90;;;;;;4430784;32;20177;-78
2021/05/23 04:19:36;;;;;;;0.40;0.40;;;10.50;99.90;;;;;;4431945;32;20061;-78
2021/05/23 04:22:03;;;;;;;0.17;0.17;;;10.60;99.90;;;;;;4431855;32;20073;-78
2021/05/23 04:24:29;;;;;;;0.40;0.40;;;10.60;99.90;;;;;;4432240;32;20518;-78
2021/05/23 04:26:54;;;;;;;0.60;0.40;;;10.70;99.90;;;;;;4431887;32;20077;-79
2021/05/23 04:29:20;;;;;;;0.43;0.43;;;10.80;99.90;;;;;;4431657;32;20131;-77
2021/05/23 04:31:45;;;;;;;0.30;0.30;;;10.70;99.90;;;;;;4431147;32;20069;-78
2021/05/23 04:34:12;;;;;;;0.30;0.30;;;10.70;99.90;;;;;;4431724;32;20065;-78
2021/05/23 04:36:38;;;;;;;0.20;0.20;;;10.70;99.90;;;;;;4431992;32;20057;-77
2021/05/23 04:39:05;;;;;;;0.30;0.30;;;10.70;99.90;;;;;;4431036;32;20086;-78
2021/05/23 04:41:32;;;;;;;0.30;0.30;;;10.70;99.90;;;;;;4431092;32;20082;-78
2021/05/23 04:43:57;;;;;;;0.30;0.30;;;10.70;99.90;;;;;;4436769;32;20133;-79
2021/05/23 04:46:24;;;;;;;0.28;0.28;;;10.70;99.90;;;;;;4438842;32;20057;-77
2021/05/23 04:48:49;;;;;;;0.40;0.40;;;10.70;99.90;;;;;;4446635;32;20764;-78
2021/05/23 04:51:15;;;;;;;0.28;0.28;;;10.70;99.90;;;;;;4446822;32;20133;-77
2021/05/23 04:53:41;;;;;;;0.50;0.50;;;10.80;99.90;;;;;;4448431;32;20085;-78
2021/05/23 04:56:06;;;;;;;0.20;0.20;;;10.80;99.90;;;;;;4435241;32;20068;-78
2021/05/23 04:58:32;;;;;;;0.30;0.30;;;10.90;99.90;;;;;;4433712;32;20060;-78
2021/05/23 05:00:58;;;;;;;0.80;0.45;;;11.00;99.90;;;;;;4435337;32;20058;-79
2021/05/23 05:03:24;;;;;;;0.20;0.20;;;11.00;99.90;;;;;;4432076;32;20062;-78
2021/05/23 05:05:49;;;;;;;0.30;0.30;;;11.10;99.90;;;;;;4445687;32;20061;-78
2021/05/23 05:08:15;;;;;;;0.32;0.32;;;11.10;99.90;;;;;;4450472;32;20084;-78
2021/05/23 05:10:40;;;;;;;0.32;0.32;;;11.20;99.90;;;;;;4450590;32;20128;-79
2021/05/23 05:13:06;;;;;;;0.30;0.30;;;11.30;99.90;;;;;;4448775;32;20066;-78
2021/05/23 05:15:32;;;;;;;0.62;0.40;;;11.50;99.90;;;;;;4437219;32;20089;-78
2021/05/23 05:17:57;;;;;;;0.25;0.25;;;11.50;99.90;;;;;;4432576;32;20057;-78
2021/05/23 05:20:24;;;;;;;0.22;0.22;;;11.50;99.90;;;;;;4432040;32;20058;-79
2021/05/23 05:22:52;;;;;;;0.40;0.40;;;11.50;99.90;;;;;;4430633;32;20049;-76
2021/05/23 05:25:17;;;;;;;1.67;0.43;;;11.60;99.90;;;;;;4440903;32;20132;-76
2021/05/23 05:27:43;;;;;;;0.20;0.20;;;11.60;99.90;;;;;;4448090;32;20085;-77
2021/05/23 05:30:10;;;;;;;0.37;0.37;;;11.70;99.90;;;;;;4447331;32;20058;-81
2021/05/23 05:32:35;;;;;;;0.30;0.30;;;11.70;99.90;;;;;;4448391;32;20058;-78
2021/05/23 05:35:02;;;;;;;0.30;0.30;;;11.50;99.90;;;;;;4440594;32;20057;-78
2021/05/23 05:37:27;;;;;;;0.22;0.22;;;11.50;99.90;;;;;;4433298;32;20053;-77
2021/05/23 05:39:53;;;;;;;0.88;0.75;;;11.50;99.90;;;;;;4430646;32;20082;-81
2021/05/23 05:42:19;;;;;;;0.30;0.30;;;11.50;99.90;;;;;;4431218;32;20077;-77
2021/05/23 05:44:45;;;;;;;0.20;0.20;;;11.60;99.90;;;;;;4438603;32;20073;-78
2021/05/23 05:47:10;;;;;;;0.22;0.22;;;11.50;99.90;;;;;;4445375;32;20077;-77
2021/05/23 05:49:37;;;;;;;0.20;0.20;;;11.50;99.90;;;;;;4445680;32;20069;-77
2021/05/23 05:52:03;;;;;;;0.20;0.20;;;11.60;99.90;;;;;;4445690;32;20571;-77
2021/05/23 05:54:29;;;;;;;0.30;0.30;;;11.60;99.90;;;;;;4446961;32;20076;-81
2021/05/23 05:56:54;;;;;;;0.40;0.40;;;11.50;99.90;;;;;;4446820;32;20073;-82
2021/05/23 05:59:20;;;;;;;3.53;0.40;;;11.50;99.90;;;;;;4445462;32;20118;-77
2021/05/23 06:01:46;;;;;;;0.30;0.30;;;11.60;99.90;;;;;;4446204;32;20089;-78
2021/05/23 06:04:11;;;;;;;0.30;0.30;;;11.50;99.90;;;;;;4444875;32;20069;-79
2021/05/23 06:06:36;;;;;;;0.20;0.20;;;11.50;99.90;;;;;;4430046;32;20065;-77
2021/05/23 06:09:03;;;;;;;0.47;0.30;;;11.40;99.90;;;;;;4430875;32;20061;-77
2021/05/23 06:11:28;;;;;;;0.20;0.20;;;11.50;99.90;;;;;;4431491;32;20061;-77
2021/05/23 06:13:53;;;;;;;0.30;0.30;;;11.50;99.90;;;;;;4445263;32;20068;-79
2021/05/23 06:16:21;;;;;;;5.45;0.43;;;11.50;99.90;;;;;;4448026;32;20061;-78
2021/05/23 06:18:46;;;;;;;0.30;0.30;;;11.60;99.90;;;;;;4447179;32;20070;-78
2021/05/23 06:21:12;;;;;;;0.30;0.30;;;11.70;99.90;;;;;;4447089;32;20086;-78
2021/05/23 06:23:38;;;;;;;0.60;0.40;;;11.60;99.90;;;;;;4446060;32;20061;-77
2021/05/23 06:26:04;;;;;;;1.45;0.40;;;11.60;99.90;;;;;;4430747;32;20514;-77
2021/05/23 06:28:30;;;;;;;0.20;0.20;;;11.50;99.90;;;;;;4429715;32;20069;-77
2021/05/23 06:30:55;;;;;;;0.30;0.30;;;11.50;99.90;;;;;;4431806;32;20632;-77
2021/05/23 06:33:21;;;;;;;0.47;0.47;;;11.40;99.90;;;;;;4431170;32;20148;-75
2021/05/23 06:35:46;;;;;;;0.40;0.35;;;11.30;99.90;;;;;;4443524;32;20408;-79
2021/05/23 06:38:12;;;;;;;0.50;0.50;;;11.40;99.90;;;;;;4448559;32;20077;-78
2021/05/23 06:40:37;;;;;;;0.30;0.30;;;11.40;99.90;;;;;;4449048;32;20064;-78
2021/05/23 06:43:03;;;;;;;0.20;0.20;;;11.50;99.90;;;;;;4447066;32;20065;-78
2021/05/23 06:45:28;;;;;;;0.30;0.30;;;11.50;99.90;;;;;;4438754;32;20114;-78
2021/05/23 06:47:54;;;;;;;0.30;0.30;;;11.50;99.90;;;;;;4432359;32;20090;-79
2021/05/23 06:50:20;;;;;;;0.30;0.30;;;11.50;99.90;;;;;;4432668;32;20117;-79
2021/05/23 06:52:45;;;;;;;1.40;0.50;;;11.40;99.90;;;;;;4433189;32;20073;-79
2021/05/23 06:55:12;;;;;;;0.40;0.40;;;11.50;99.90;;;;;;4438320;32;20068;-77
2021/05/23 06:57:37;;;;;;;0.20;0.20;;;11.60;99.90;;;;;;4447709;32;20082;-78
2021/05/23 07:00:08;;;;;;;0.30;0.30;;;11.60;99.90;;;;;;4449319;32;20073;-78
2021/05/23 07:02:33;;;;;;;0.30;0.30;;;11.60;99.90;;;;;;4447671;32;20065;-77
2021/05/23 07:04:59;;;;;;;0.20;0.20;;;11.70;99.90;;;;;;4443145;32;20458;-78
2021/05/23 07:07:24;;;;;;;0.20;0.20;;;11.80;99.90;;;;;;4432033;32;20077;-81
2021/05/23 07:09:50;;;;;;;0.25;0.25;;;11.90;99.90;;;;;;4432140;32;20074;-77
2021/05/23 07:12:15;;;;;;;0.20;0.20;;;11.80;99.90;;;;;;4437173;32;20077;-75
2021/05/23 07:14:41;;;;;;;0.40;0.40;;;11.90;99.90;;;;;;4445433;32;20416;-78
2021/05/23 07:17:07;;;;;;;0.20;0.20;;;12.00;99.90;;;;;;4431195;32;20097;-77
2021/05/23 07:19:32;;;;;;;0.28;0.28;;;12.20;99.90;;;;;;4432444;32;20112;-78
2021/05/23 07:21:58;;;;;;;0.20;0.20;;;12.40;99.90;;;;;;4432091;32;20077;-77
2021/05/23 07:24:23;;;;;;;0.30;0.30;;;12.60;99.90;;;;;;4432699;32;20081;-77
2021/05/23 07:26:49;;;;;;;0.20;0.20;;;12.80;99.90;;;;;;4432799;32;20066;-78
2021/05/23 07:29:14;;;;;;;0.45;0.43;;;13.00;99.90;;;;;;4432225;32;20479;-78
2021/05/23 07:31:40;;;;;;;0.20;0.20;;;13.20;99.90;;;;;;4434061;32;20074;-78
2021/05/23 07:34:05;;;;;;;0.40;0.40;;;13.10;99.90;;;;;;4431866;32;20073;-75
2021/05/23 07:36:31;;;;;;;0.30;0.30;;;13.20;99.90;;;;;;4444683;32;20707;-78
2021/05/23 07:38:56;;;;;;;0.88;0.77;;;13.30;99.90;;;;;;4447440;32;20085;-77
2021/05/23 07:41:23;;;;;;;0.22;0.22;;;13.40;99.90;;;;;;4447275;32;20065;-78
2021/05/23 07:43:49;;;;;;;0.20;0.20;;;13.40;99.90;;;;;;4446825;32;20081;-79
2021/05/23 07:46:14;;;;;;;0.10;0.10;;;13.50;99.90;;;;;;4434841;32;20127;-78
2021/05/23 07:48:40;;;;;;;0.62;0.40;;;13.70;99.90;;;;;;4431924;32;20065;-76
2021/05/23 07:51:08;;;;;;;0.37;0.37;;;13.70;99.90;;;;;;4432173;32;20089;-78
2021/05/23 07:53:34;;;;;;;0.40;0.40;;;13.80;99.90;;;;;;4433249;32;20077;-78
2021/05/23 07:56:00;;;;;;;0.50;0.50;;;13.90;99.90;;;;;;4442674;32;20073;-77
2021/05/23 07:58:25;;;;;;;0.30;0.30;;;14.00;99.90;;;;;;4446629;32;20128;-78
2021/05/23 08:00:51;;;;;;;0.30;0.30;;;13.90;99.90;;;;;;4447777;32;20115;-77
2021/05/23 08:03:16;;;;;;;0.47;0.47;;;13.80;99.90;;;;;;4448659;32;20588;-77
2021/05/23 08:05:42;;;;;;;0.25;0.25;;;13.80;99.90;;;;;;4439263;32;20506;-77
2021/05/23 08:08:08;;;;;;;0.30;0.30;;;13.80;99.90;;;;;;4432084;32;20517;-77
2021/05/23 08:10:34;;;;;;;0.20;0.20;;;13.80;99.90;;;;;;4432154;32;20120;-77
2021/05/23 08:12:59;;;;;;;0.22;0.22;;;13.90;99.90;;;;;;4442502;32;20073;-76
2021/05/23 08:15:25;;;;;;;0.20;0.20;;;14.10;99.90;;;;;;4441344;32;20069;-76
2021/05/23 08:17:53;;;;;;;0.32;0.32;;;14.00;99.90;;;;;;4430308;32;20399;-79
2021/05/23 08:20:19;;;;;;;0.30;0.30;;;13.90;99.90;;;;;;4431473;32;20124;-79
2021/05/23 08:22:44;;;;;;;0.37;0.37;;;14.00;99.90;;;;;;4431701;32;20470;-76
2021/05/23 08:25:16;;;;;;;0.30;0.30;;;14.20;99.90;;;;;;4435386;32;20119;-78
2021/05/23 08:27:42;;;;;;;8.23;0.55;;;14.50;99.90;;;;;;4446797;32;20510;-77
2021/05/23 08:30:10;;;;;;;0.70;0.68;;;14.90;99.90;;;;;;4446730;32;20083;-77
2021/05/23 08:32:36;;;;;;;0.30;0.30;;;14.90;99.90;;;;;;4446273;32;20114;-77
2021/05/23 08:35:03;;;;;;;0.40;0.40;;;14.70;99.90;;;;;;4443949;32;20538;-76
2021/05/23 08:37:28;;;;;;;0.30;0.30;;;14.60;99.90;;;;;;4433861;32;20073;-77
2021/05/23 08:39:54;;;;;;;0.30;0.30;;;14.60;99.90;;;;;;4431844;32;20514;-78
2021/05/23 08:42:19;;;;;;;0.20;0.20;;;14.50;99.90;;;;;;4430732;32;20080;-78
2021/05/23 08:44:45;;;;;;;0.20;0.20;;;14.60;99.90;;;;;;4431748;32;20072;-77
2021/05/23 08:47:12;;;;;;;0.30;0.30;;;14.20;99.90;;;;;;4446062;32;20065;-76
2021/05/23 08:49:37;;;;;;;0.20;0.20;;;14.00;99.90;;;;;;4446471;32;20092;-77
2021/05/23 08:52:03;;;;;;;0.20;0.20;;;14.00;99.90;;;;;;4447302;32;20069;-76
2021/05/23 08:54:29;;;;;;;0.35;0.35;;;14.00;99.90;;;;;;4447162;32;20065;-76
2021/05/23 08:56:55;;;;;;;0.20;0.20;;;14.00;99.90;;;;;;4432195;32;20230;-78
2021/05/23 08:59:20;;;;;;;0.20;0.20;;;14.20;99.90;;;;;;4430942;32;20065;-76
2021/05/23 09:01:46;;;;;;;0.40;0.40;;;14.20;99.90;;;;;;4432373;32;20116;-75
2021/05/23 09:04:17;;;;;;;1.00;0.50;;;14.40;99.90;;;;;;4431172;32;20128;-77
2021/05/23 09:06:43;;;;;;;0.22;0.22;;;14.60;99.90;;;;;;4443283;32;20078;-76
2021/05/23 09:09:12;;;;;;;0.30;0.30;;;14.90;99.90;;;;;;4432087;32;20527;-77
2021/05/23 09:11:39;;;;;;;0.20;0.20;;;15.00;99.90;;;;;;4447545;32;20073;-78
2021/05/23 09:14:05;;;;;;;0.52;0.52;;;14.90;99.90;;;;;;4447015;32;20081;-82
2021/05/23 09:16:40;;;;;;;0.47;0.47;;;14.90;99.90;;;;;;4447285;32;20061;-78
2021/05/23 09:19:07;;;;;;;0.22;0.22;;;14.60;99.90;;;;;;4449107;32;20538;-80
2021/05/23 09:21:40;;;;;;;0.35;0.35;;;14.50;99.90;;;;;;4448183;32;20657;-79
2021/05/23 09:24:09;;;;;;;0.30;0.30;;;14.30;99.90;;;;;;4446576;32;20069;-77
2021/05/23 09:26:44;;;;;;;0.22;0.22;;;14.20;99.90;;;;;;4448274;32;20119;-80
2021/05/23 09:29:14;;;;;;;0.20;0.20;;;14.30;99.90;;;;;;4446117;32;20089;-77
2021/05/23 09:31:57;;;;;;;0.37;0.37;;;14.50;99.90;;;;;;4447417;32;20064;-79
2021/05/23 09:34:25;;;;;;;0.43;0.32;;;14.70;99.90;;;;;;4448560;32;20405;-74
2021/05/23 09:36:50;;;;;;;0.40;0.40;;;14.90;99.90;;;;;;4431802;32;20056;-74
2021/05/23 09:39:16;;;;;;;0.30;0.30;;;15.20;99.90;;;;;;4427328;32;77543;-74
2021/05/23 09:41:43;;;;;;;0.30;0.30;;;15.40;99.90;;;;;;4430667;32;20065;-74
2021/05/23 09:44:12;;;;;;;3.35;0.73;;;15.40;99.90;;;;;;4430109;32;20085;-74
2021/05/23 09:47:00;;;;;;;0.20;0.20;;;15.30;99.90;;;;;;4439617;32;20127;-74
2021/05/23 09:49:27;;;;;;;0.20;0.20;;;15.60;99.90;;;;;;4432598;32;20065;-74
2021/05/23 09:51:58;;;;;;;0.20;0.20;;;16.00;99.90;;;;;;4445272;32;20085;-73
2021/05/23 09:54:25;;;;;;;0.30;0.30;;;16.10;99.90;;;;;;4445854;32;20061;-74
2021/05/23 09:56:51;;;;;;;0.22;0.22;;;16.00;99.90;;;;;;4431818;32;20077;-73
2021/05/23 09:59:20;;;;;;;0.20;0.20;;;15.70;99.90;;;;;;4429464;32;20064;-73
2021/05/23 10:01:46;;;;;;;0.22;0.22;;;15.70;99.90;;;;;;4429661;32;20474;-74
2021/05/23 10:04:18;;;;;;;0.20;0.20;;;15.90;99.90;;;;;;4430069;32;20069;-74
2021/05/23 10:06:44;;;;;;;0.25;0.25;;;16.10;99.90;;;;;;4440446;32;20494;-74
2021/05/23 10:09:10;;;;;;;0.20;0.20;;;16.20;99.90;;;;;;4444440;32;20161;-73
2021/05/23 10:11:36;;;;;;;0.30;0.30;;;16.00;99.90;;;;;;4443183;32;20530;-74
2021/05/23 10:14:01;;;;;;;0.30;0.30;;;16.20;99.90;;;;;;4429557;32;20065;-74
2021/05/23 10:16:27;;;;;;;0.30;0.30;;;16.40;99.90;;;;;;4437336;32;20086;-73
2021/05/23 10:18:55;;;;;;;0.30;0.30;;;16.30;99.90;;;;;;4443989;32;20077;-74
2021/05/23 10:21:21;;;;;;;0.28;0.28;;;16.60;99.90;;;;;;4444524;32;20085;-74
2021/05/23 10:23:57;;;;;;;0.28;0.28;;;17.00;99.90;;;;;;4444096;32;20065;-74
2021/05/23 10:26:25;;;;;;;0.28;0.28;;;17.30;99.90;;;;;;4434996;32;20073;-73
2021/05/23 10:28:52;;;;;;;0.20;0.20;;;17.20;99.90;;;;;;4428841;32;20069;-74
2021/05/23 10:31:28;;;;;;;0.25;0.25;;;17.00;99.90;;;;;;4428749;32;20498;-74
2021/05/23 10:33:54;;;;;;;0.20;0.20;;;16.90;99.90;;;;;;4429429;32;20060;-74
2021/05/23 10:36:38;;;;;;;0.30;0.30;;;17.10;99.90;;;;;;4436431;32;20069;-74
2021/05/23 10:39:08;;;;;;;0.20;0.20;;;17.70;99.90;;;;;;4444237;32;20086;-74
2021/05/23 10:41:33;;;;;;;0.30;0.30;;;18.40;99.90;;;;;;4439693;32;20093;-74
2021/05/23 10:44:01;;;;;;;0.20;0.20;;;18.20;99.90;;;;;;4429473;32;20557;-74
2021/05/23 10:46:27;;;;;;;0.20;0.20;;;17.70;99.90;;;;;;4431013;32;20124;-74
2021/05/23 10:48:56;;;;;;;0.20;0.20;;;17.60;99.90;;;;;;4429594;32;20153;-74
2021/05/23 10:51:22;;;;;;;0.30;0.30;;;17.80;99.90;;;;;;4428741;32;20070;-73
2021/05/23 10:53:48;;;;;;;0.20;0.20;;;17.40;99.90;;;;;;4429662;32;20069;-74
2021/05/23 10:56:20;;;;;;;0.20;0.20;;;17.10;99.90;;;;;;4440918;32;20089;-73
2021/05/23 10:59:03;;;;;;;0.28;0.28;;;17.30;99.90;;;;;;4441142;32;20462;-74
2021/05/23 11:01:40;;;;;;;0.20;0.20;;;17.30;99.90;;;;;;4443647;32;20525;-74
2021/05/23 11:04:24;;;;;;;0.25;0.25;;;17.50;99.90;;;;;;4435527;32;20073;-73
2021/05/23 11:06:50;;;;;;;0.22;0.22;;;17.30;99.90;;;;;;4431214;32;20076;-73
2021/05/23 11:09:20;;;;;;;0.47;0.47;;;17.00;99.90;;;;;;4435110;32;20057;-73
2021/05/23 11:11:46;;;;;;;0.20;0.20;;;17.00;99.90;;;;;;4430347;32;20076;-73
2021/05/23 11:14:14;;;;;;;0.30;0.30;;;17.80;99.90;;;;;;4432601;32;20117;-74
2021/05/23 11:16:57;;;;;;;0.30;0.30;;;18.30;99.90;;;;;;4441840;32;20084;-74
2021/05/23 11:19:24;;;;;;;0.20;0.20;;;18.00;99.90;;;;;;4431937;32;20115;-74
2021/05/23 11:21:53;;;;;;;0.30;0.30;;;17.90;99.90;;;;;;4428892;32;20085;-73
2021/05/23 11:24:24;;;;;;;0.20;0.20;;;17.50;99.90;;;;;;4430046;32;20609;-73
2021/05/23 11:26:50;;;;;;;0.20;0.20;;;17.20;99.90;;;;;;4431734;32;20073;-74
2021/05/23 11:29:15;;;;;;;0.30;0.30;;;17.30;99.90;;;;;;4430952;32;20115;-73
2021/05/23 11:31:45;;;;;;;0.30;0.30;;;17.20;99.90;;;;;;4435041;32;20502;-74
2021/05/23 11:34:13;;;;;;;0.20;0.20;;;17.00;99.90;;;;;;4445738;32;20128;-73
2021/05/23 11:36:40;;;;;;;0.20;0.20;;;17.10;99.90;;;;;;4436584;32;20171;-73
2021/05/23 11:39:08;;;;;;;0.30;0.30;;;17.20;99.90;;;;;;4446529;32;20065;-73
2021/05/23 11:41:44;;;;;;;0.30;0.30;;;17.20;99.90;;;;;;4441141;32;20463;-73
2021/05/23 11:44:13;;;;;;;0.30;0.30;;;17.00;99.90;;;;;;4431484;32;20069;-73
2021/05/23 11:46:42;;;;;;;0.20;0.20;;;16.60;99.90;;;;;;4436115;32;20069;-73
2021/05/23 11:49:18;;;;;;;0.30;0.30;;;16.90;99.90;;;;;;4440082;32;20073;-74
2021/05/23 11:51:43;;;;;;;0.20;0.20;;;17.60;99.90;;;;;;4430757;32;20081;-74
2021/05/23 11:54:09;;;;;;;0.30;0.30;;;17.60;99.90;;;;;;4435073;32;20081;-73
2021/05/23 11:56:36;;;;;;;0.37;0.37;;;17.30;99.90;;;;;;4433153;32;20069;-74
2021/05/23 11:59:04;;;;;;;0.20;0.20;;;17.10;99.90;;;;;;4434363;32;20438;-73
2021/05/23 12:01:32;;;;;;;0.30;0.30;;;17.00;99.90;;;;;;4444759;32;20458;-73
2021/05/23 12:04:08;;;;;;;0.20;0.20;;;16.80;99.90;;;;;;4442009;32;20065;-73
2021/05/23 12:06:36;;;;;;;0.20;0.20;;;16.50;99.90;;;;;;4430140;32;20065;-74
2021/05/23 12:09:07;;;;;;;1.08;0.90;;;16.50;99.90;;;;;;4434986;32;20107;-74
2021/05/23 12:11:37;;;;;;;0.22;0.22;;;17.20;99.90;;;;;;4444422;32;20065;-74
2021/05/23 12:14:03;;;;;;;0.30;0.30;;;17.60;99.90;;;;;;4432775;32;20506;-73
2021/05/23 12:16:28;;;;;;;0.20;0.20;;;17.70;99.90;;;;;;4432626;32;20062;-73
2021/05/23 12:18:56;;;;;;;0.20;0.20;;;17.50;99.90;;;;;;4430603;32;20142;-73
2021/05/23 12:21:26;;;;;;;0.22;0.22;;;17.20;99.90;;;;;;4430798;32;20069;-73
2021/05/23 12:23:54;;;;;;;0.30;0.30;;;16.90;99.90;;;;;;4432092;32;20061;-73
2021/05/23 12:26:21;;;;;;;0.20;0.20;;;16.90;99.90;;;;;;4435536;32;20132;-74
2021/05/23 12:28:49;;;;;;;0.20;0.20;;;17.20;99.90;;;;;;4436650;32;20065;-74
2021/05/23 12:31:17;;;;;;;0.20;0.20;;;17.80;99.90;;;;;;4430673;32;20069;-74
2021/05/23 12:33:52;;;;;;;0.15;0.15;;;19.00;98.80;;;;;;4443428;32;20112;-74
2021/05/23 12:36:20;;;;;;;0.25;0.25;;;19.10;97.70;;;;;;4435255;32;20498;-73
2021/05/23 12:39:07;;;;;;;0.22;0.22;;;18.80;97.90;;;;;;4443476;32;20061;-74
2021/05/23 12:41:39;;;;;;;0.20;0.20;;;18.20;99.90;;;;;;4443384;32;20085;-74
2021/05/23 12:44:25;;;;;;;0.20;0.20;;;17.90;99.90;;;;;;4429915;32;20053;-73
2021/05/23 12:46:52;;;;;;;0.20;0.20;;;17.60;99.90;;;;;;4429199;32;20086;-73
2021/05/23 12:49:23;;;;;;;0.20;0.20;;;17.20;99.90;;;;;;4429665;32;20114;-73